»·PEaware :: N520MP KOTH-KMFR

N520MP :: KOTH-KMFR

FLIGHT INFORMATION

Flight Status: Arrived
Operator: Privately registered:
United States
More flights under this callsign
Pilot: Manuel P. (9695)
Aircraft: BOMBARDIER BD-100 CHALLENGER 300
(CL30)
More flights by this aircraft type
Origin: KOTH North Bend Mun
United States
Destination: KMFR Rogue Valley Intl-Medford
United States
More flights between these airports :: More routes between these airports
Route: +OTH6 OTH V287 OED
File this flight plan on PilotEdge
Remarks:
Altitude:
(Current/Filed)
11,000ft
Speed:
(Current/Filed)
400kts
Departed: 30-Nov-17 02:50 PM
Arrived: 30-Nov-17 03:14 PM
Distance/Time
Traveled:
87nm/0:24
Distance/Time
To Go:
Arrived

Flight Plot

Page will automatically refresh every two minutes.

Flight plan parsing failed; only flown route is shown


Map Options




Map Legend


Flown Route
Filed Route
Departure Airport
Arrival Airport
Navaid (VOR, NDB)
Fix

Horizontal Profiles

Position Reports

Time Latitude Longitude Heading Altitude Ground
Speed
30-Nov-17 14:42 43.417559 -124.247218 236 23ft 0kts
30-Nov-17 14:43 43.417559 -124.247218 236 23ft 0kts
30-Nov-17 14:44 43.417559 -124.247218 236 23ft 0kts
30-Nov-17 14:45 43.417559 -124.247218 236 23ft 0kts
30-Nov-17 14:46 43.417559 -124.247218 236 23ft 0kts
30-Nov-17 14:47 43.417559 -124.247218 236 23ft 0kts
30-Nov-17 14:48 43.417559 -124.247218 236 23ft 0kts
30-Nov-17 14:49 43.417841 -124.246877 333 24ft 5kts
30-Nov-17 14:50 43.418880 -124.247355 259 23ft 7kts
30-Nov-17 14:51 43.417365 -124.251100 241 24ft 11kts
30-Nov-17 14:52 43.415123 -124.256561 240 24ft 18kts
30-Nov-17 14:53 43.413967 -124.259861 301 24ft 0kts
30-Nov-17 14:54 43.414861 -124.260211 50 24ft 0kts
30-Nov-17 14:55 43.435658 -124.233768 1 1072ft 200kts
30-Nov-17 14:56 43.478833 -124.239475 67 3404ft 152kts
30-Nov-17 14:57 43.458922 -124.226305 243 5635ft 159kts
30-Nov-17 14:58 43.457112 -124.282943 282 8276ft 202kts
30-Nov-17 14:59 43.411785 -124.303120 137 10076ft 297kts
30-Nov-17 15:00 43.370754 -124.188786 125 10990ft 354kts
30-Nov-17 15:01 43.320384 -124.077478 125 10978ft 338kts
30-Nov-17 15:02 43.264531 -123.965313 138 10987ft 363kts
30-Nov-17 15:03 43.194322 -123.867842 139 10979ft 359kts
30-Nov-17 15:04 43.123684 -123.771640 139 10982ft 362kts
30-Nov-17 15:05 43.052328 -123.674946 139 10945ft 361kts
30-Nov-17 15:06 42.981445 -123.579412 139 10953ft 358kts
30-Nov-17 15:07 42.911346 -123.485346 139 10953ft 352kts
30-Nov-17 15:08 42.845014 -123.396572 140 10954ft 323kts
30-Nov-17 15:09 42.782766 -123.313645 140 10933ft 315kts
30-Nov-17 15:10 42.719960 -123.230267 140 10901ft 318kts
30-Nov-17 15:11 42.676518 -123.133383 86 10000ft 308kts
30-Nov-17 15:12 42.682743 -123.027569 108 8841ft 264kts
30-Nov-17 15:13 42.624002 -122.972819 155 6959ft 248kts
30-Nov-17 15:14 42.559537 -122.954923 174 5084ft 248kts
30-Nov-17 15:15 42.494628 -122.938680 160 3429ft 215kts
30-Nov-17 15:16 42.450960 -122.913472 156 2942ft 151kts
30-Nov-17 15:17 42.415244 -122.894573 158 2347ft 134kts
30-Nov-17 15:18 42.379023 -122.875438 166 1340ft 105kts
30-Nov-17 15:19 42.372837 -122.873614 188 1340ft 8kts
30-Nov-17 15:20 42.370638 -122.873270 256 1340ft 7kts
30-Nov-17 15:21 42.371696 -122.876236 294 1340ft 8kts
30-Nov-17 15:22 42.371442 -122.877408 209 1339ft 1kts
30-Nov-17 15:23 42.371311 -122.877701 290 1340ft 0kts
30-Nov-17 15:24 42.371311 -122.877701 290 1340ft 0kts
30-Nov-17 15:25 42.371311 -122.877701 290 1340ft 0kts
30-Nov-17 15:26 42.371311 -122.877701 290 1340ft 0kts
30-Nov-17 15:27 42.371311 -122.877701 290 1340ft 0kts
30-Nov-17 15:28 42.371311 -122.877701 290 1340ft 0kts
30-Nov-17 15:29 42.371311 -122.877701 290 1340ft 0kts
30-Nov-17 15:30 42.371311 -122.877701 290 1340ft 0kts
30-Nov-17 15:31 42.371311 -122.877701 290 1340ft 0kts
30-Nov-17 15:32 42.371311 -122.877701 290 1340ft 0kts
30-Nov-17 15:33 42.371311 -122.877701 290 1340ft 0kts

Navigation Log

Ident Type
Flight plan parsing failed, navigation log unavailable